Time;durP1;ratioP1;P1;durP2;ratioP2;P2;SDS_P1;SDS_P2;PMS_P1;PMS_P2;Temp;Humidity;BMP_temperature;BMP_pressure;BME280_temperature;BME280_humidity;BME280_pressure;Samples;Min_cycle;Max_cycle;Signal;HPM_P1;HPM_P2
2023/04/24 00:04:49;;;;;;;;;;;;;;;20.42;44.83;94770.78;10463998;28;2914;-64
2023/04/24 00:09:50;;;;;;;;;;;;;;;20.42;44.67;94759.47;10465923;28;2009;-64
2023/04/24 00:14:51;;;;;;;;;;;;;;;20.42;44.63;94754.97;10475294;28;2843;-64
2023/04/24 00:19:58;;;;;;;;;;;;;;;20.42;44.61;94754.19;10469393;28;1998;-64
2023/04/24 00:24:59;;;;;;;;;;;;;;;20.41;44.78;94757.88;10446125;28;2823;-64
2023/04/24 00:30:00;;;;;;;;;;;;;;;20.42;44.57;94751.56;10476790;28;2959;-63
2023/04/24 00:35:00;;;;;;;;;;;;;;;20.40;44.57;94751.06;10468877;28;2025;-64
2023/04/24 00:40:00;;;;;;;;;;;;;;;20.40;44.59;94754.50;10471584;28;2200;-64
2023/04/24 00:45:01;;;;;;;;;;;;;;;20.39;44.81;94760.81;10460882;28;2976;-64
2023/04/24 00:50:06;;;;;;;;;;;;;;;20.39;44.64;94763.44;10446275;28;2860;-64
2023/04/24 00:55:08;;;;;;;;;;;;;;;20.40;44.54;94749.22;10457292;28;2827;-64
2023/04/24 01:00:11;;;;;;;;;;;;;;;20.40;44.56;94751.06;10460764;28;2020;-64
2023/04/24 01:05:12;;;;;;;;;;;;;;;20.37;44.36;94749.03;10459913;28;2888;-64
2023/04/24 01:10:14;;;;;;;;;;;;;;;20.37;44.28;94755.06;10462907;28;2820;-64
2023/04/24 01:15:15;;;;;;;;;;;;;;;20.37;44.35;94751.66;10464545;28;2909;-64
2023/04/24 01:20:26;;;;;;;;;;;;;;;20.36;44.61;94748.22;10457475;28;2994;-64
2023/04/24 01:25:26;;;;;;;;;;;;;;;20.35;44.52;94741.44;10447864;28;3229;-64
2023/04/24 01:30:26;;;;;;;;;;;;;;;20.35;44.51;94741.44;10486247;28;2896;-64
2023/04/24 01:35:29;;;;;;;;;;;;;;;20.34;44.24;94734.59;10459609;28;2843;-64
2023/04/24 01:40:29;;;;;;;;;;;;;;;20.34;44.27;94724.06;10478413;28;2083;-64
2023/04/24 01:45:30;;;;;;;;;;;;;;;20.34;44.11;94733.84;10464357;28;2894;-62
2023/04/24 01:50:30;;;;;;;;;;;;;;;20.34;44.29;94739.84;10476069;28;2033;-64
2023/04/24 01:55:31;;;;;;;;;;;;;;;20.33;44.19;94730.41;10465399;28;2407;-64
2023/04/24 02:00:32;;;;;;;;;;;;;;;20.33;44.12;94733.06;10468238;28;2836;-64
2023/04/24 02:05:32;;;;;;;;;;;;;;;20.32;44.14;94736.75;10473217;28;3001;-63
2023/04/24 02:10:32;;;;;;;;;;;;;;;20.31;44.27;94735.19;10476625;28;2775;-64
2023/04/24 02:15:33;;;;;;;;;;;;;;;20.31;44.13;94734.41;10483949;28;2863;-64
2023/04/24 02:20:35;;;;;;;;;;;;;;;20.30;43.98;94731.00;10479578;28;2730;-64
2023/04/24 02:25:36;;;;;;;;;;;;;;;20.30;43.92;94728.38;10467038;28;2934;-65
2023/04/24 02:30:39;;;;;;;;;;;;;;;20.30;44.04;94733.63;10475892;28;2020;-64
2023/04/24 02:35:40;;;;;;;;;;;;;;;20.27;44.02;94716.59;10478196;28;2867;-64
2023/04/24 02:40:40;;;;;;;;;;;;;;;20.28;43.90;94727.88;10481628;28;2903;-64
2023/04/24 02:45:41;;;;;;;;;;;;;;;20.27;43.77;94724.50;10469991;28;3259;-64
2023/04/24 02:50:44;;;;;;;;;;;;;;;20.27;43.78;94719.22;10481189;28;2145;-63
2023/04/24 02:55:45;;;;;;;;;;;;;;;20.27;43.99;94734.22;10468348;28;1998;-64
2023/04/24 03:00:47;;;;;;;;;;;;;;;20.25;43.74;94725.84;10466252;28;2241;-64
2023/04/24 03:05:48;;;;;;;;;;;;;;;20.27;43.68;94726.34;10461887;28;2843;-64
2023/04/24 03:10:48;;;;;;;;;;;;;;;20.25;43.57;94731.91;10474207;28;3033;-64
2023/04/24 03:15:48;;;;;;;;;;;;;;;20.25;43.88;94728.50;10472404;28;2808;-64
2023/04/24 03:20:49;;;;;;;;;;;;;;;20.25;43.58;94725.84;10485213;28;2108;-63
2023/04/24 03:25:50;;;;;;;;;;;;;;;20.25;43.56;94736.38;10486811;28;2967;-64
2023/04/24 03:30:52;;;;;;;;;;;;;;;20.24;43.57;94734.81;10479942;28;3186;-63
2023/04/24 03:35:52;;;;;;;;;;;;;;;20.24;43.73;94732.97;10461805;28;2917;-64
2023/04/24 03:40:53;;;;;;;;;;;;;;;20.23;43.48;94733.28;10463303;28;2919;-64
2023/04/24 03:45:54;;;;;;;;;;;;;;;20.23;43.48;94725.38;10466595;28;3234;-64
2023/04/24 03:50:55;;;;;;;;;;;;;;;20.22;43.54;94731.69;10462137;28;2798;-64
2023/04/24 03:55:55;;;;;;;;;;;;;;;20.22;43.73;94729.06;10495800;28;2098;-63
2023/04/24 04:00:57;;;;;;;;;;;;;;;20.22;43.43;94729.06;10467824;28;2938;-64
2023/04/24 04:05:58;;;;;;;;;;;;;;;20.21;43.65;94722.25;10470812;28;3360;-64
2023/04/24 04:10:58;;;;;;;;;;;;;;;20.21;43.47;94709.09;10465335;28;2025;-64
2023/04/24 04:15:58;;;;;;;;;;;;;;;20.25;43.48;94720.59;10454752;28;3109;-64
2023/04/24 04:21:00;;;;;;;;;;;;;;;20.24;43.45;94713.75;10465697;28;2931;-64
2023/04/24 04:26:03;;;;;;;;;;;;;;;20.28;43.39;94722.63;10470270;28;2140;-64
2023/04/24 04:31:12;;;;;;;;;;;;;;;20.31;43.32;94727.31;10460022;28;2033;-64
2023/04/24 04:36:13;;;;;;;;;;;;;;;20.33;43.23;94730.41;10464198;28;2025;-63
2023/04/24 04:41:16;;;;;;;;;;;;;;;20.37;43.22;94731.38;10456211;28;2878;-64
2023/04/24 04:46:17;;;;;;;;;;;;;;;20.42;43.25;94738.41;10475529;28;2848;-64
2023/04/24 04:51:17;;;;;;;;;;;;;;;20.47;43.15;94743.53;10477982;28;2878;-63
2023/04/24 04:56:18;;;;;;;;;;;;;;;20.50;43.00;94741.09;10462105;28;2922;-64
2023/04/24 05:01:18;;;;;;;;;;;;;;;20.55;43.14;94746.25;10456809;28;3016;-64
2023/04/24 05:06:20;;;;;;;;;;;;;;;20.60;42.92;94753.25;10480358;28;2998;-64
2023/04/24 05:11:20;;;;;;;;;;;;;;;20.62;42.89;94757.16;10459500;28;2044;-64
2023/04/24 05:16:21;;;;;;;;;;;;;;;20.67;42.98;94753.66;10461283;28;2896;-64
2023/04/24 05:21:21;;;;;;;;;;;;;;;20.68;42.48;94760.44;10468332;28;2921;-64
2023/04/24 05:26:22;;;;;;;;;;;;;;;20.74;42.40;94765.31;10451444;28;3426;-64
2023/04/24 05:31:23;;;;;;;;;;;;;;;20.77;42.58;94766.59;10471961;28;2866;-64
2023/04/24 05:36:23;;;;;;;;;;;;;;;20.78;42.44;94761.00;10482047;28;2824;-64
2023/04/24 05:41:23;;;;;;;;;;;;;;;20.79;42.38;94770.44;10469856;28;2887;-65
2023/04/24 05:46:25;;;;;;;;;;;;;;;20.78;42.30;94766.28;10473622;28;3161;-59
2023/04/24 05:51:28;;;;;;;;;;;;;;;20.80;42.49;94764.13;10478883;28;2038;-60
2023/04/24 05:56:28;;;;;;;;;;;;;;;20.79;42.50;94767.81;10465464;28;3057;-62
2023/04/24 06:01:31;;;;;;;;;;;;;;;20.81;42.43;94764.91;10477010;28;3043;-62
2023/04/24 06:06:32;;;;;;;;;;;;;;;20.81;42.49;94780.72;10472490;28;2803;-60
2023/04/24 06:11:32;;;;;;;;;;;;;;;20.80;42.24;94782.56;10468083;28;2880;-60
2023/04/24 06:16:33;;;;;;;;;;;;;;;20.76;42.47;94773.69;10472853;28;2966;-61
2023/04/24 06:21:33;;;;;;;;;;;;;;;20.74;42.84;94778.47;10474966;28;2827;-63
2023/04/24 06:26:34;;;;;;;;;;;;;;;20.76;42.59;94778.19;10473241;28;2866;-63
2023/04/24 06:31:36;;;;;;;;;;;;;;;20.74;43.25;94783.75;10468590;28;2970;-63
2023/04/24 06:36:37;;;;;;;;;;;;;;;20.74;43.46;94788.22;10473089;28;2852;-63
2023/04/24 06:41:37;;;;;;;;;;;;;;;20.72;43.25;94783.28;10476944;28;2867;-63
2023/04/24 06:46:37;;;;;;;;;;;;;;;20.72;43.34;94799.06;10476738;28;2044;-63
2023/04/24 06:51:38;;;;;;;;;;;;;;;20.72;43.29;94806.19;10477608;28;2910;-63
2023/04/24 06:56:38;;;;;;;;;;;;;;;20.69;43.13;94804.91;10491379;28;2732;-63
2023/04/24 07:01:38;;;;;;;;;;;;;;;20.68;43.18;94797.31;10475946;28;1965;-63
2023/04/24 07:06:39;;;;;;;;;;;;;;;20.66;43.06;94794.19;10471371;28;2947;-63
2023/04/24 07:11:40;;;;;;;;;;;;;;;20.62;43.07;94809.81;10469389;28;2902;-63
2023/04/24 07:16:40;;;;;;;;;;;;;;;20.62;42.93;94804.56;10489113;28;2816;-63
2023/04/24 07:21:41;;;;;;;;;;;;;;;20.60;42.91;94811.97;10459607;28;2136;-63
2023/04/24 07:26:41;;;;;;;;;;;;;;;20.59;42.98;94815.66;10481364;28;2875;-63
2023/04/24 07:31:41;;;;;;;;;;;;;;;20.58;42.92;94818.59;10453000;28;2982;-64
2023/04/24 07:36:42;;;;;;;;;;;;;;;20.57;42.86;94815.19;10473786;28;2869;-63
2023/04/24 07:41:42;;;;;;;;;;;;;;;20.57;42.96;94822.28;10473859;28;2944;-63
2023/04/24 07:46:49;;;;;;;;;;;;;;;20.55;43.30;94833.13;10481751;28;2861;-64
2023/04/24 07:51:49;;;;;;;;;;;;;;;20.54;43.25;94834.22;10469532;28;2955;-63
2023/04/24 07:56:50;;;;;;;;;;;;;;;20.53;43.13;94837.13;10465673;28;2822;-63
2023/04/24 08:01:50;;;;;;;;;;;;;;;20.52;43.14;94838.22;10475113;28;2075;-63
2023/04/24 08:06:51;;;;;;;;;;;;;;;20.54;43.46;94841.34;10475914;28;3011;-64
2023/04/24 08:11:53;;;;;;;;;;;;;;;20.52;43.11;94846.09;10462566;28;2859;-64
2023/04/24 08:16:55;;;;;;;;;;;;;;;20.50;43.27;94843.78;10464335;28;2921;-64
2023/04/24 08:21:55;;;;;;;;;;;;;;;20.50;42.96;94856.94;10466342;28;2873;-63
2023/04/24 08:26:57;;;;;;;;;;;;;;;20.49;43.02;94846.69;10472123;28;2033;-64
2023/04/24 08:31:58;;;;;;;;;;;;;;;20.47;43.04;94862.78;10463862;28;3011;-63
2023/04/24 08:36:58;;;;;;;;;;;;;;;20.46;42.71;94874.41;10465581;28;2828;-64
2023/04/24 08:42:05;;;;;;;;;;;;;;;20.45;42.72;94886.00;10450406;28;2867;-63
2023/04/24 08:47:05;;;;;;;;;;;;;;;20.42;42.95;94894.50;10465920;28;2856;-64
2023/04/24 08:52:05;;;;;;;;;;;;;;;20.42;42.79;94894.50;10479592;28;2935;-63
2023/04/24 08:57:06;;;;;;;;;;;;;;;20.41;42.87;94900.81;10462786;28;2902;-63
2023/04/24 09:02:09;;;;;;;;;;;;;;;20.40;42.73;94907.16;10481233;28;3043;-64
2023/04/24 09:07:10;;;;;;;;;;;;;;;20.40;42.67;94922.94;10467306;28;2871;-63
2023/04/24 09:12:14;;;;;;;;;;;;;;;20.39;42.95;94920.59;10479207;28;2882;-64
2023/04/24 09:17:14;;;;;;;;;;;;;;;20.39;42.75;94920.59;10485088;28;2867;-64
2023/04/24 09:22:15;;;;;;;;;;;;;;;20.37;42.75;94909.56;10465083;28;2935;-64
2023/04/24 09:27:17;;;;;;;;;;;;;;;20.36;42.62;94910.66;10448161;28;2045;-63
2023/04/24 09:32:18;;;;;;;;;;;;;;;20.35;42.90;94920.41;10471664;28;2867;-63
2023/04/24 09:37:27;;;;;;;;;;;;;;;20.35;42.83;94914.34;10464846;28;2868;-63
2023/04/24 09:42:28;;;;;;;;;;;;;;;20.35;42.60;94922.25;10480129;28;2879;-64
2023/04/24 09:47:35;;;;;;;;;;;;;;;20.34;42.62;94918.81;10488528;28;2923;-63
2023/04/24 09:52:35;;;;;;;;;;;;;;;20.34;42.63;94915.44;10464761;28;2799;-64
2023/04/24 09:57:36;;;;;;;;;;;;;;;20.33;42.67;94919.91;10466208;28;2899;-64
2023/04/24 10:02:36;;;;;;;;;;;;;;;20.33;42.73;94906.75;10463773;28;2876;-64
2023/04/24 10:07:38;;;;;;;;;;;;;;;20.33;42.74;94904.13;10494128;28;2913;-64
2023/04/24 10:12:39;;;;;;;;;;;;;;;20.33;42.69;94912.03;10468573;28;3271;-63
2023/04/24 10:17:52;;;;;;;;;;;;;;;20.34;43.27;94913.56;10468986;28;2770;-63
2023/04/24 10:22:53;;;;;;;;;;;;;;;20.38;44.08;94911.16;10475865;28;2805;-60
2023/04/24 10:27:57;;;;;;;;;;;;;;;20.40;44.74;94904.53;10478720;28;2923;-62
2023/04/24 10:32:59;;;;;;;;;;;;;;;20.42;44.69;94894.50;10477632;28;1954;-63
2023/04/24 10:38:05;;;;;;;;;;;;;;;20.42;44.62;94891.84;10487830;28;2849;-63
2023/04/24 10:43:07;;;;;;;;;;;;;;;20.44;44.93;94902.88;10488682;28;2937;-62
2023/04/24 10:48:13;;;;;;;;;;;;;;;20.43;44.77;94909.19;10488379;28;2944;-63
2023/04/24 10:53:18;;;;;;;;;;;;;;;20.46;44.67;94953.38;10479299;28;2784;-64
2023/04/24 10:58:21;;;;;;;;;;;;;;;20.41;44.21;94976.34;10473569;28;3019;-64
2023/04/24 11:03:24;;;;;;;;;;;;;;;20.38;44.16;94951.38;10493965;28;2131;-64
2023/04/24 11:08:28;;;;;;;;;;;;;;;20.38;43.93;94940.09;10470661;28;3166;-64
2023/04/24 11:13:48;;;;;;;;;;;;;;;20.35;43.92;94933.56;10459614;28;2934;-64
2023/04/24 11:18:53;;;;;;;;;;;;;;;20.35;43.79;94920.41;10471069;28;2902;-64
2023/04/24 11:23:55;;;;;;;;;;;;;;;20.35;43.87;94925.66;10462398;28;3007;-64
2023/04/24 11:28:55;;;;;;;;;;;;;;;20.35;44.11;94923.03;10487989;28;2875;-64
2023/04/24 11:33:56;;;;;;;;;;;;;;;20.35;44.26;94930.16;10455082;28;1987;-64
2023/04/24 11:38:56;;;;;;;;;;;;;;;20.36;44.10;94948.28;10463434;28;2837;-64
2023/04/24 11:43:57;;;;;;;;;;;;;;;20.35;44.10;94948.56;10471806;28;2950;-64
2023/04/24 11:48:58;;;;;;;;;;;;;;;20.36;44.20;94940.38;10476348;28;1992;-64
2023/04/24 11:53:58;;;;;;;;;;;;;;;20.36;44.36;94940.38;10467082;28;2898;-64
2023/04/24 11:59:00;;;;;;;;;;;;;;;20.35;44.33;94936.19;10472317;28;2083;-63
2023/04/24 12:04:01;;;;;;;;;;;;;;;20.36;44.06;94929.09;10468050;28;2883;-64
2023/04/24 12:09:01;;;;;;;;;;;;;;;20.36;44.18;94929.84;10472281;28;2817;-63
2023/04/24 12:14:11;;;;;;;;;;;;;;;20.34;44.05;94925.97;10470711;28;2934;-63
2023/04/24 12:19:13;;;;;;;;;;;;;;;20.33;44.10;94916.50;10468307;28;2833;-63
2023/04/24 12:24:14;;;;;;;;;;;;;;;20.34;44.04;94918.06;10463331;28;2055;-64
2023/04/24 12:29:21;;;;;;;;;;;;;;;20.33;43.94;94917.28;10456627;28;2858;-63
2023/04/24 12:34:23;;;;;;;;;;;;;;;20.33;44.01;94916.50;10466968;28;2072;-63
2023/04/24 12:39:26;;;;;;;;;;;;;;;20.30;43.96;94904.69;10466970;28;2828;-64
2023/04/24 12:44:30;;;;;;;;;;;;;;;20.32;43.68;94894.66;10460388;28;2910;-64
2023/04/24 12:49:31;;;;;;;;;;;;;;;20.31;43.75;94894.94;10468538;28;2823;-63
2023/04/24 12:54:34;;;;;;;;;;;;;;;20.33;43.59;94901.50;10465513;28;2113;-63
2023/04/24 12:59:34;;;;;;;;;;;;;;;20.34;43.51;94915.44;10473580;28;2902;-63
2023/04/24 13:04:35;;;;;;;;;;;;;;;20.33;43.55;94917.28;10469015;28;3174;-63
2023/04/24 13:09:35;;;;;;;;;;;;;;;20.32;43.50;94928.09;10466766;28;2028;-63
2023/04/24 13:14:36;;;;;;;;;;;;;;;20.32;43.70;94947.28;10463224;28;2819;-63
2023/04/24 13:19:38;;;;;;;;;;;;;;;20.30;43.40;94952.06;10462747;28;2880;-63
2023/04/24 13:24:40;;;;;;;;;;;;;;;20.30;43.46;94941.53;10465973;28;2871;-62
2023/04/24 13:29:42;;;;;;;;;;;;;;;20.31;43.27;94940.47;10464312;28;3025;-61
2023/04/24 13:34:42;;;;;;;;;;;;;;;20.30;43.37;94930.25;10477750;28;2896;-62
2023/04/24 13:39:42;;;;;;;;;;;;;;;20.31;43.61;94916.00;10470393;28;2891;-62
2023/04/24 13:44:43;;;;;;;;;;;;;;;20.32;43.58;94918.34;10474946;28;2789;-62
2023/04/24 13:49:44;;;;;;;;;;;;;;;20.34;43.53;94925.97;10476872;28;2916;-62
2023/04/24 13:54:45;;;;;;;;;;;;;;;20.35;43.63;94917.78;10473465;28;2871;-62
2023/04/24 13:59:58;;;;;;;;;;;;;;;20.39;43.71;94923.22;10474541;28;2906;-62
2023/04/24 14:04:58;;;;;;;;;;;;;;;20.42;43.81;94917.38;10490646;28;2039;-61
2023/04/24 14:10:09;;;;;;;;;;;;;;;20.45;43.81;94919.41;10478283;28;2926;-61
2023/04/24 14:15:10;;;;;;;;;;;;;;;20.47;43.70;94930.44;10466883;28;2953;-61
2023/04/24 14:20:12;;;;;;;;;;;;;;;20.49;43.78;94936.97;10478873;28;2874;-62
2023/04/24 14:25:12;;;;;;;;;;;;;;;20.51;43.57;94945.38;10472036;28;1961;-61
2023/04/24 14:30:13;;;;;;;;;;;;;;;20.52;43.61;94933.00;10478807;28;3034;-61
2023/04/24 14:35:14;;;;;;;;;;;;;;;20.55;43.60;94950.81;10483717;28;3008;-62
2023/04/24 14:40:15;;;;;;;;;;;;;;;20.56;43.38;94953.19;10473259;28;2841;-62
2023/04/24 14:45:18;;;;;;;;;;;;;;;20.57;43.23;94946.03;10468666;28;3010;-62
2023/04/24 14:50:18;;;;;;;;;;;;;;;20.59;43.21;94954.44;10469504;28;2899;-62
2023/04/24 14:55:19;;;;;;;;;;;;;;;20.58;42.91;94940.50;10468446;28;2033;-62
2023/04/24 15:00:20;;;;;;;;;;;;;;;20.59;43.17;94952.59;10464760;28;2918;-62
2023/04/24 15:05:20;;;;;;;;;;;;;;;20.58;42.91;94951.03;10476024;28;2030;-62
2023/04/24 15:10:22;;;;;;;;;;;;;;;20.58;42.88;94953.66;10476825;28;2915;-62
2023/04/24 15:15:23;;;;;;;;;;;;;;;20.57;42.86;94954.72;10468892;28;2903;-62
2023/04/24 15:20:24;;;;;;;;;;;;;;;20.58;42.72;94968.69;10469307;28;3025;-60
2023/04/24 15:25:25;;;;;;;;;;;;;;;20.57;42.80;94973.16;10475457;28;2892;-62
2023/04/24 15:30:25;;;;;;;;;;;;;;;20.55;42.85;94977.94;10453167;28;2074;-62
2023/04/24 15:35:26;;;;;;;;;;;;;;;20.55;42.79;94972.66;10453325;28;2841;-62
2023/04/24 15:40:27;;;;;;;;;;;;;;;20.52;42.97;94973.28;10475784;28;2821;-62
2023/04/24 15:45:27;;;;;;;;;;;;;;;20.54;42.71;94976.38;10466718;28;2031;-62
2023/04/24 15:50:28;;;;;;;;;;;;;;;20.56;42.66;94978.72;10474728;28;2856;-62
2023/04/24 15:55:29;;;;;;;;;;;;;;;20.54;42.57;94984.28;10459349;28;2939;-61
2023/04/24 16:00:33;;;;;;;;;;;;;;;20.54;42.74;94994.81;10466455;28;3133;-61
2023/04/24 16:05:33;;;;;;;;;;;;;;;20.51;42.59;94992.75;10459443;28;2964;-61
2023/04/24 16:10:33;;;;;;;;;;;;;;;20.52;42.39;94994.34;10463315;28;2039;-61
2023/04/24 16:15:35;;;;;;;;;;;;;;;20.50;42.40;94996.47;10463895;28;2046;-61
2023/04/24 16:20:35;;;;;;;;;;;;;;;20.48;42.14;94997.84;10472560;28;3023;-61
2023/04/24 16:25:36;;;;;;;;;;;;;;;20.47;42.27;95004.94;10479137;28;2119;-62
2023/04/24 16:30:36;;;;;;;;;;;;;;;20.47;42.12;95012.84;10449211;28;2926;-61
2023/04/24 16:35:36;;;;;;;;;;;;;;;20.45;42.73;95019.47;10469942;28;2007;-61
2023/04/24 16:40:37;;;;;;;;;;;;;;;20.45;42.92;95024.72;10484621;28;3189;-60
2023/04/24 16:45:43;;;;;;;;;;;;;;;20.45;42.53;95024.72;10468499;28;2835;-60
2023/04/24 16:50:45;;;;;;;;;;;;;;;20.45;42.95;95017.59;10467987;28;2227;-60
2023/04/24 16:55:45;;;;;;;;;;;;;;;20.44;42.73;95023.97;10453201;28;2964;-60
2023/04/24 17:00:47;;;;;;;;;;;;;;;20.45;42.94;95028.13;10475994;28;2909;-62
2023/04/24 17:05:48;;;;;;;;;;;;;;;20.46;42.89;95026.31;10466058;28;2846;-66
2023/04/24 17:10:49;;;;;;;;;;;;;;;20.46;42.51;95018.41;10452742;28;2875;-63
2023/04/24 17:15:49;;;;;;;;;;;;;;;20.47;42.49;95038.38;10466752;28;2043;-60
2023/04/24 17:20:49;;;;;;;;;;;;;;;20.48;42.68;95042.59;10478182;28;3227;-62
2023/04/24 17:25:50;;;;;;;;;;;;;;;20.47;42.22;95049.69;10471127;28;3174;-63
2023/04/24 17:30:50;;;;;;;;;;;;;;;20.48;42.46;95045.22;10458958;28;3169;-63
2023/04/24 17:35:52;;;;;;;;;;;;;;;20.47;42.35;95054.97;10474662;28;3154;-62
2023/04/24 17:40:53;;;;;;;;;;;;;;;20.48;42.38;95056.53;10468357;28;2061;-63
2023/04/24 17:45:55;;;;;;;;;;;;;;;20.49;42.40;95050.19;10454624;28;3121;-63
2023/04/24 17:50:55;;;;;;;;;;;;;;;20.48;42.40;95061.00;10472869;28;3171;-63
2023/04/24 17:56:00;;;;;;;;;;;;;;;20.48;42.32;95056.53;10473129;28;3182;-62
2023/04/24 18:01:01;;;;;;;;;;;;;;;20.46;42.14;95061.31;10444024;28;3189;-63
2023/04/24 18:06:01;;;;;;;;;;;;;;;20.43;41.96;95075.03;10475444;28;3326;-63
2023/04/24 18:11:02;;;;;;;;;;;;;;;20.42;42.18;95072.69;10474104;28;3146;-63
2023/04/24 18:16:03;;;;;;;;;;;;;;;20.40;41.95;95078.25;10469713;28;2054;-62
2023/04/24 18:21:04;;;;;;;;;;;;;;;20.40;41.81;95083.53;10467605;28;2041;-62
2023/04/24 18:26:05;;;;;;;;;;;;;;;20.39;41.99;95083.78;10469118;28;3142;-62
2023/04/24 18:31:07;;;;;;;;;;;;;;;20.39;41.81;95083.78;10466216;28;3119;-63
2023/04/24 18:36:07;;;;;;;;;;;;;;;20.36;42.16;95090.41;10461419;28;3186;-63
